Gans, Oklahoma
Current Conditions -  °F | °C
As of 3:35 PM on Thursday 27 Nov 2014 (Local Time) from KJSV Reporting Station
Clear Clear  
Wind Chill: 46°   Ceiling: Unl
Heat Index: 48°   Visibility: 10mi
Dew Point: 28°   Wind: 5mph
Humidity: 46%   Direction: 200°SSW
Pressure: 30.45"   Gusts: NA
Location:  35.39°N, 94.69°W
Report Text: KJSV 272135Z AUTO 20004KT 10SM CLR 09/M02 A3045 RMK AO2
Loading
Personal Weather Stations






























Interactive Weather Map New forecast layout! Learn more

10-Day Weather Forecast

Advertisements
Track Severe Weather on mobile